Weather reports worldwide

Advertisment
Mannheim City Airport, Germany (10730): temperature & dewpoint: 16.06.2018 15:00:00 - 22.06.2018 15:00:00 (CEST)Mannheim City Airport, Germany (10730): wind speed: 16.06.2018 15:00:00 - 22.06.2018 15:00:00 (CEST)Mannheim City Airport, Germany (10730): wind direction: 16.06.2018 15:00:00 - 22.06.2018 15:00:00 (CEST)Mannheim City Airport, Germany (10730): visibility: 16.06.2018 15:00:00 - 22.06.2018 15:00:00 (CEST)
Date & Time tt [°C] td [°C] ff [km/h] ff [kn] dd vv [km]
22.06.2018 15:00:00 17,0 5,0 26 14 NW 10
22.06.2018 14:00:00 17,0 6,0 18 10 NNW 10
22.06.2018 13:00:00 17,0 6,0 24 13 NNW 10
22.06.2018 12:00:00 16,0 5,0 21 11 WNW 10
22.06.2018 11:00:00 15,0 5,0 21 11 NW 10
22.06.2018 10:00:00 15,0 5,0 16 9 NW 10
22.06.2018 09:00:00 13,0 5,0 13 7 WNW 10
22.06.2018 08:00:00 12,0 5,0 13 7 W 10
22.06.2018 07:00:00 11,0 5,0 13 7 W 10
22.06.2018 06:00:00 11,0 5,0 5 3 - 10
22.06.2018 05:00:00 - - - - - -
22.06.2018 04:00:00 - - - - - -
22.06.2018 03:00:00 - - - - - -
22.06.2018 02:00:00 - - - - - -
22.06.2018 01:00:00 - - - - - -
22.06.2018 00:00:00 - - - - - -
21.06.2018 23:00:00 - - - - - -
21.06.2018 22:00:00 - - - - - -
21.06.2018 21:00:00 18,0 3,0 29 16 NNW 10
21.06.2018 20:00:00 20,0 2,0 29 16 NNW 10
21.06.2018 19:00:00 21,0 3,0 26 14 NNW 10
21.06.2018 18:00:00 22,0 7,0 28 15 NNW 10
21.06.2018 17:00:00 23,0 9,0 24 13 NNW 10
21.06.2018 16:00:00 24,0 10,0 24 13 WNW 10
21.06.2018 15:00:00 21,0 13,0 21 11 NW 10
21.06.2018 14:00:00 22,0 14,0 29 16 NNW 10
21.06.2018 13:00:00 25,0 13,0 24 13 WNW 10
21.06.2018 12:00:00 25,0 12,0 18 10 WSW 10
21.06.2018 11:00:00 24,0 12,0 16 9 W 10
21.06.2018 10:00:00 23,0 12,0 24 13 WNW 10
21.06.2018 09:00:00 23,0 15,0 15 8 W 10
21.06.2018 08:00:00 22,0 16,0 4 2 - 10
21.06.2018 07:00:00 21,0 17,0 4 2 - 10
21.06.2018 06:00:00 19,0 17,0 4 2 - 10
21.06.2018 05:00:00 - - - - - -
21.06.2018 04:00:00 - - - - - -
21.06.2018 03:00:00 - - - - - -
21.06.2018 02:00:00 - - - - - -
21.06.2018 01:00:00 - - - - - -
21.06.2018 00:00:00 - - - - - -
20.06.2018 23:00:00 - - - - - -
20.06.2018 22:00:00 - - - - - -
20.06.2018 21:00:00 28,0 15,0 9 5 NE 10
20.06.2018 20:00:00 29,0 15,0 5 3 - 10
20.06.2018 19:00:00 30,0 14,0 8 4 N 10
20.06.2018 18:00:00 30,0 14,0 9 5 ENE 10
20.06.2018 17:00:00 30,0 14,0 9 5 NNW 10
20.06.2018 16:00:00 29,0 14,0 8 4 - 10
20.06.2018 15:00:00 28,0 14,0 5 3 - 10
20.06.2018 14:00:00 28,0 16,0 5 3 - 10
20.06.2018 13:00:00 27,0 15,0 5 3 - 10
20.06.2018 12:00:00 26,0 15,0 4 2 - 10
20.06.2018 11:00:00 24,0 14,0 5 3 - 10
20.06.2018 10:00:00 24,0 16,0 4 2 - 10
20.06.2018 09:00:00 22,0 15,0 4 2 - 10
20.06.2018 08:00:00 20,0 16,0 5 3 N 10
20.06.2018 07:00:00 19,0 16,0 2 1 - 10
20.06.2018 06:00:00 17,0 16,0 0 0 N 10
20.06.2018 05:00:00 - - - - - -
20.06.2018 04:00:00 - - - - - -
20.06.2018 03:00:00 - - - - - -
20.06.2018 02:00:00 - - - - - -
20.06.2018 01:00:00 - - - - - -
20.06.2018 00:00:00 - - - - - -
19.06.2018 23:00:00 - - - - - -
19.06.2018 22:00:00 23,0 15,0 8 4 NNE 10
19.06.2018 21:00:00 24,0 15,0 9 5 N 10
19.06.2018 20:00:00 24,0 15,0 9 5 N 10
19.06.2018 19:00:00 24,0 15,0 15 8 N 10
19.06.2018 18:00:00 25,0 14,0 13 7 NNW 10
19.06.2018 17:00:00 25,0 14,0 8 4 N 10
19.06.2018 16:00:00 24,0 14,0 11 6 NNW 10
19.06.2018 15:00:00 25,0 16,0 13 7 NW 10
19.06.2018 14:00:00 24,0 15,0 13 7 W 10
19.06.2018 13:00:00 24,0 13,0 8 4 NNW 10
19.06.2018 12:00:00 24,0 14,0 9 5 - 10
19.06.2018 11:00:00 22,0 13,0 13 7 WSW 10
19.06.2018 10:00:00 21,0 14,0 9 5 WNW 10
19.06.2018 09:00:00 20,0 14,0 8 4 - 10
19.06.2018 08:00:00 19,0 15,0 9 5 SSW 10
19.06.2018 07:00:00 17,0 15,0 8 4 SSE 10
19.06.2018 06:00:00 17,0 15,0 8 4 SE 10
19.06.2018 05:00:00 - - - - - -
19.06.2018 04:00:00 - - - - - -
19.06.2018 03:00:00 - - - - - -
19.06.2018 02:00:00 - - - - - -
19.06.2018 01:00:00 - - - - - -
19.06.2018 00:00:00 - - - - - -
18.06.2018 23:00:00 - - - - - -
18.06.2018 22:00:00 - - - - - -
18.06.2018 21:00:00 - - - - - -
18.06.2018 20:00:00 23,0 12,0 9 5 WSW 10
18.06.2018 19:00:00 23,0 11,0 13 7 W 10
18.06.2018 18:00:00 23,0 11,0 9 5 W 10
18.06.2018 17:00:00 23,0 10,0 15 8 WSW 10
18.06.2018 16:00:00 23,0 11,0 15 8 W 10
18.06.2018 15:00:00 22,0 10,0 13 7 WSW 10
18.06.2018 14:00:00 22,0 10,0 8 4 - 10
18.06.2018 13:00:00 21,0 10,0 8 4 W 10
18.06.2018 12:00:00 22,0 10,0 11 6 SSW 10
18.06.2018 11:00:00 21,0 10,0 8 4 - 10
18.06.2018 10:00:00 20,0 9,0 9 5 W 10
18.06.2018 09:00:00 19,0 10,0 5 3 - 10
18.06.2018 08:00:00 17,0 10,0 4 2 - 10
18.06.2018 07:00:00 17,0 11,0 5 3 - 10
18.06.2018 06:00:00 16,0 12,0 2 1 - 10
18.06.2018 05:00:00 - - - - - -
18.06.2018 04:00:00 - - - - - -
18.06.2018 03:00:00 - - - - - -
18.06.2018 02:00:00 - - - - - -
18.06.2018 01:00:00 - - - - - -
18.06.2018 00:00:00 - - - - - -
17.06.2018 23:00:00 - - - - - -
17.06.2018 22:00:00 20,0 10,0 11 6 W 10
17.06.2018 21:00:00 21,0 10,0 15 8 W 10
17.06.2018 20:00:00 21,0 11,0 15 8 WNW 10
17.06.2018 19:00:00 22,0 10,0 22 12 WNW 10
17.06.2018 18:00:00 22,0 11,0 13 7 WNW 10
17.06.2018 17:00:00 23,0 11,0 16 9 W 10
17.06.2018 16:00:00 22,0 11,0 9 5 WSW 10
17.06.2018 15:00:00 23,0 11,0 9 5 WSW 10
17.06.2018 14:00:00 22,0 11,0 11 6 SSW 10
17.06.2018 13:00:00 22,0 10,0 9 5 W 10
17.06.2018 12:00:00 21,0 10,0 4 2 - 10
17.06.2018 11:00:00 21,0 9,0 9 5 WSW 10
17.06.2018 10:00:00 20,0 10,0 8 4 - 10
17.06.2018 09:00:00 19,0 11,0 9 5 NNW 10
17.06.2018 08:00:00 18,0 12,0 15 8 NW 10
17.06.2018 07:00:00 18,0 13,0 11 6 WNW 10
17.06.2018 06:00:00 - - - - - -
17.06.2018 05:00:00 - - - - - -
17.06.2018 04:00:00 - - - - - -
17.06.2018 03:00:00 - - - - - -
17.06.2018 02:00:00 - - - - - -
17.06.2018 01:00:00 - - - - - -
17.06.2018 00:00:00 - - - - - -
16.06.2018 23:00:00 - - - - - -
16.06.2018 22:00:00 - - - - - -
16.06.2018 21:00:00 - - - - - -
16.06.2018 20:00:00 26,0 11,0 8 4 WSW 10
16.06.2018 19:00:00 26,0 13,0 5 3 - 10
16.06.2018 18:00:00 26,0 11,0 5 3 - 10
16.06.2018 17:00:00 26,0 10,0 8 4 - 10
16.06.2018 16:00:00 26,0 11,0 8 4 - 10
16.06.2018 15:00:00 25,0 11,0 9 5 WSW 10

tt = temperature
td = dewpoint
ff = wind speed
dd = wind direction
vv = visibility

Next stations